sensor_id;sensor_type;location;lat;lon;timestamp;P1;durP1;ratioP1;P2;durP2;ratioP2
13685;SDS011;6915;48.296;8.874;2023-11-19T00:08:42;0.50;;;0.50;;
13685;SDS011;6915;48.296;8.874;2023-11-19T00:11:12;1.07;;;0.60;;
13685;SDS011;6915;48.296;8.874;2023-11-19T00:13:51;0.50;;;0.50;;
13685;SDS011;6915;48.296;8.874;2023-11-19T00:16:51;0.50;;;0.50;;
13685;SDS011;6915;48.296;8.874;2023-11-19T00:29:58;0.20;;;0.20;;
13685;SDS011;6915;48.296;8.874;2023-11-19T00:32:32;0.30;;;0.30;;
13685;SDS011;6915;48.296;8.874;2023-11-19T00:35:32;0.43;;;0.30;;
13685;SDS011;6915;48.296;8.874;2023-11-19T00:38:20;0.20;;;0.20;;
13685;SDS011;6915;48.296;8.874;2023-11-19T00:41:26;0.20;;;0.20;;
13685;SDS011;6915;48.296;8.874;2023-11-19T00:44:30;0.20;;;0.20;;
13685;SDS011;6915;48.296;8.874;2023-11-19T00:47:49;0.67;;;0.23;;
13685;SDS011;6915;48.296;8.874;2023-11-19T00:50:50;0.10;;;0.10;;
13685;SDS011;6915;48.296;8.874;2023-11-19T00:53:53;0.20;;;0.20;;
13685;SDS011;6915;48.296;8.874;2023-11-19T00:57:12;0.30;;;0.30;;
13685;SDS011;6915;48.296;8.874;2023-11-19T01:31:24;0.30;;;0.30;;
13685;SDS011;6915;48.296;8.874;2023-11-19T01:33:57;0.20;;;0.20;;
13685;SDS011;6915;48.296;8.874;2023-11-19T01:36:25;0.20;;;0.20;;
13685;SDS011;6915;48.296;8.874;2023-11-19T01:38:57;0.10;;;0.10;;
13685;SDS011;6915;48.296;8.874;2023-11-19T01:41:35;0.30;;;0.30;;
13685;SDS011;6915;48.296;8.874;2023-11-19T01:44:07;0.33;;;0.20;;
13685;SDS011;6915;48.296;8.874;2023-11-19T01:47:09;0.37;;;0.27;;
13685;SDS011;6915;48.296;8.874;2023-11-19T01:49:44;0.40;;;0.20;;
13685;SDS011;6915;48.296;8.874;2023-11-19T01:52:12;0.20;;;0.20;;
13685;SDS011;6915;48.296;8.874;2023-11-19T01:54:39;0.70;;;0.30;;
13685;SDS011;6915;48.296;8.874;2023-11-19T01:57:07;0.73;;;0.20;;
13685;SDS011;6915;48.296;8.874;2023-11-19T01:59:35;0.30;;;0.30;;
13685;SDS011;6915;48.296;8.874;2023-11-19T02:02:05;0.20;;;0.20;;
13685;SDS011;6915;48.296;8.874;2023-11-19T02:04:33;0.27;;;0.27;;
13685;SDS011;6915;48.296;8.874;2023-11-19T02:07:06;0.33;;;0.20;;
13685;SDS011;6915;48.296;8.874;2023-11-19T02:09:37;0.30;;;0.20;;
13685;SDS011;6915;48.296;8.874;2023-11-19T02:12:16;2.17;;;0.30;;
13685;SDS011;6915;48.296;8.874;2023-11-19T02:14:48;0.30;;;0.30;;
13685;SDS011;6915;48.296;8.874;2023-11-19T02:17:28;0.63;;;0.20;;
13685;SDS011;6915;48.296;8.874;2023-11-19T02:20:03;0.40;;;0.17;;
13685;SDS011;6915;48.296;8.874;2023-11-19T02:22:32;0.20;;;0.20;;
13685;SDS011;6915;48.296;8.874;2023-11-19T02:25:03;0.20;;;0.20;;
13685;SDS011;6915;48.296;8.874;2023-11-19T02:27:43;1.40;;;0.30;;
13685;SDS011;6915;48.296;8.874;2023-11-19T02:30:13;0.30;;;0.27;;
13685;SDS011;6915;48.296;8.874;2023-11-19T02:32:47;0.20;;;0.20;;
13685;SDS011;6915;48.296;8.874;2023-11-19T02:35:17;0.20;;;0.20;;
13685;SDS011;6915;48.296;8.874;2023-11-19T02:37:46;0.70;;;0.20;;
13685;SDS011;6915;48.296;8.874;2023-11-19T02:40:14;0.83;;;0.30;;
13685;SDS011;6915;48.296;8.874;2023-11-19T02:42:46;0.77;;;0.30;;
13685;SDS011;6915;48.296;8.874;2023-11-19T02:45:16;0.20;;;0.20;;
13685;SDS011;6915;48.296;8.874;2023-11-19T02:47:48;0.97;;;0.40;;
13685;SDS011;6915;48.296;8.874;2023-11-19T02:50:40;0.80;;;0.37;;
13685;SDS011;6915;48.296;8.874;2023-11-19T02:53:09;0.20;;;0.20;;
13685;SDS011;6915;48.296;8.874;2023-11-19T02:55:38;1.60;;;0.60;;
13685;SDS011;6915;48.296;8.874;2023-11-19T02:58:08;0.60;;;0.30;;
13685;SDS011;6915;48.296;8.874;2023-11-19T03:00:45;1.47;;;0.40;;
13685;SDS011;6915;48.296;8.874;2023-11-19T03:03:17;0.40;;;0.40;;
13685;SDS011;6915;48.296;8.874;2023-11-19T03:05:45;0.20;;;0.20;;
13685;SDS011;6915;48.296;8.874;2023-11-19T03:08:13;0.40;;;0.33;;
13685;SDS011;6915;48.296;8.874;2023-11-19T03:10:41;0.43;;;0.30;;
13685;SDS011;6915;48.296;8.874;2023-11-19T03:13:12;0.60;;;0.30;;
13685;SDS011;6915;48.296;8.874;2023-11-19T03:15:40;0.23;;;0.20;;
13685;SDS011;6915;48.296;8.874;2023-11-19T03:18:07;0.20;;;0.20;;
13685;SDS011;6915;48.296;8.874;2023-11-19T03:20:35;0.63;;;0.30;;
13685;SDS011;6915;48.296;8.874;2023-11-19T03:23:02;0.53;;;0.20;;
13685;SDS011;6915;48.296;8.874;2023-11-19T03:25:29;0.40;;;0.30;;
13685;SDS011;6915;48.296;8.874;2023-11-19T03:27:59;0.50;;;0.40;;
13685;SDS011;6915;48.296;8.874;2023-11-19T03:30:30;0.20;;;0.20;;
13685;SDS011;6915;48.296;8.874;2023-11-19T03:32:58;0.30;;;0.30;;
13685;SDS011;6915;48.296;8.874;2023-11-19T03:35:27;0.27;;;0.27;;
13685;SDS011;6915;48.296;8.874;2023-11-19T03:37:57;0.70;;;0.40;;
13685;SDS011;6915;48.296;8.874;2023-11-19T03:40:39;0.40;;;0.40;;
13685;SDS011;6915;48.296;8.874;2023-11-19T03:43:07;0.30;;;0.27;;
13685;SDS011;6915;48.296;8.874;2023-11-19T03:45:36;0.20;;;0.10;;
13685;SDS011;6915;48.296;8.874;2023-11-19T03:48:03;0.37;;;0.37;;
13685;SDS011;6915;48.296;8.874;2023-11-19T03:50:34;0.20;;;0.20;;
13685;SDS011;6915;48.296;8.874;2023-11-19T03:53:01;0.20;;;0.20;;
13685;SDS011;6915;48.296;8.874;2023-11-19T03:55:29;0.40;;;0.30;;
13685;SDS011;6915;48.296;8.874;2023-11-19T03:57:57;0.20;;;0.20;;
13685;SDS011;6915;48.296;8.874;2023-11-19T04:00:28;0.83;;;0.27;;
13685;SDS011;6915;48.296;8.874;2023-11-19T04:02:57;0.47;;;0.20;;
13685;SDS011;6915;48.296;8.874;2023-11-19T04:05:25;0.73;;;0.10;;
13685;SDS011;6915;48.296;8.874;2023-11-19T04:07:53;0.47;;;0.20;;
13685;SDS011;6915;48.296;8.874;2023-11-19T04:10:22;0.20;;;0.20;;
13685;SDS011;6915;48.296;8.874;2023-11-19T04:12:52;0.67;;;0.10;;
13685;SDS011;6915;48.296;8.874;2023-11-19T04:15:19;0.20;;;0.20;;
13685;SDS011;6915;48.296;8.874;2023-11-19T04:17:56;0.03;;;0.03;;
13685;SDS011;6915;48.296;8.874;2023-11-19T04:20:28;0.73;;;0.40;;
13685;SDS011;6915;48.296;8.874;2023-11-19T04:22:58;0.17;;;0.17;;
13685;SDS011;6915;48.296;8.874;2023-11-19T04:25:36;1.37;;;0.20;;
13685;SDS011;6915;48.296;8.874;2023-11-19T04:28:06;0.20;;;0.20;;
13685;SDS011;6915;48.296;8.874;2023-11-19T04:30:37;0.10;;;0.10;;
13685;SDS011;6915;48.296;8.874;2023-11-19T04:33:44;0.20;;;0.10;;
13685;SDS011;6915;48.296;8.874;2023-11-19T04:36:22;0.10;;;0.10;;
13685;SDS011;6915;48.296;8.874;2023-11-19T04:39:16;0.87;;;0.10;;
13685;SDS011;6915;48.296;8.874;2023-11-19T04:41:54;0.10;;;0.10;;
13685;SDS011;6915;48.296;8.874;2023-11-19T04:44:45;0.10;;;0.10;;
13685;SDS011;6915;48.296;8.874;2023-11-19T04:47:48;0.50;;;0.10;;
13685;SDS011;6915;48.296;8.874;2023-11-19T04:50:59;0.00;;;0.00;;
13685;SDS011;6915;48.296;8.874;2023-11-19T04:54:17;0.00;;;0.00;;
13685;SDS011;6915;48.296;8.874;2023-11-19T04:56:37;0.00;;;0.00;;
13685;SDS011;6915;48.296;8.874;2023-11-19T04:59:42;0.10;;;0.10;;
13685;SDS011;6915;48.296;8.874;2023-11-19T05:02:33;0.30;;;0.10;;
13685;SDS011;6915;48.296;8.874;2023-11-19T05:05:15;0.00;;;0.00;;
13685;SDS011;6915;48.296;8.874;2023-11-19T05:07:50;0.17;;;0.10;;
13685;SDS011;6915;48.296;8.874;2023-11-19T05:10:21;0.20;;;0.10;;
13685;SDS011;6915;48.296;8.874;2023-11-19T05:16:29;0.13;;;0.10;;
13685;SDS011;6915;48.296;8.874;2023-11-19T15:40:12;6.67;;;4.77;;
13685;SDS011;6915;48.296;8.874;2023-11-19T15:42:39;5.03;;;2.83;;
13685;SDS011;6915;48.296;8.874;2023-11-19T15:45:08;6.83;;;4.13;;
13685;SDS011;6915;48.296;8.874;2023-11-19T15:47:37;1.13;;;1.10;;
13685;SDS011;6915;48.296;8.874;2023-11-19T15:50:05;11.90;;;7.53;;
13685;SDS011;6915;48.296;8.874;2023-11-19T15:52:35;10.43;;;7.13;;
13685;SDS011;6915;48.296;8.874;2023-11-19T15:55:03;15.33;;;9.07;;
13685;SDS011;6915;48.296;8.874;2023-11-19T15:57:32;1.93;;;1.57;;
13685;SDS011;6915;48.296;8.874;2023-11-19T15:59:59;1.67;;;0.63;;
13685;SDS011;6915;48.296;8.874;2023-11-19T16:02:25;2.53;;;0.60;;
13685;SDS011;6915;48.296;8.874;2023-11-19T16:04:52;0.77;;;0.40;;
13685;SDS011;6915;48.296;8.874;2023-11-19T16:07:19;0.63;;;0.60;;
13685;SDS011;6915;48.296;8.874;2023-11-19T16:09:46;0.87;;;0.47;;
13685;SDS011;6915;48.296;8.874;2023-11-19T16:12:14;0.57;;;0.57;;
13685;SDS011;6915;48.296;8.874;2023-11-19T16:14:42;1.13;;;0.60;;
13685;SDS011;6915;48.296;8.874;2023-11-19T16:17:09;0.87;;;0.57;;
13685;SDS011;6915;48.296;8.874;2023-11-19T16:19:36;1.03;;;0.60;;
13685;SDS011;6915;48.296;8.874;2023-11-19T16:22:04;0.47;;;0.47;;
13685;SDS011;6915;48.296;8.874;2023-11-19T16:24:34;0.90;;;0.70;;
13685;SDS011;6915;48.296;8.874;2023-11-19T16:27:01;0.87;;;0.73;;
13685;SDS011;6915;48.296;8.874;2023-11-19T16:29:28;0.97;;;0.77;;
13685;SDS011;6915;48.296;8.874;2023-11-19T16:31:57;1.40;;;0.90;;
13685;SDS011;6915;48.296;8.874;2023-11-19T16:34:23;2.87;;;1.00;;
13685;SDS011;6915;48.296;8.874;2023-11-19T16:36:50;2.40;;;1.10;;
13685;SDS011;6915;48.296;8.874;2023-11-19T16:39:17;1.23;;;1.13;;
13685;SDS011;6915;48.296;8.874;2023-11-19T16:41:44;1.10;;;1.00;;
13685;SDS011;6915;48.296;8.874;2023-11-19T16:44:11;1.50;;;1.10;;
13685;SDS011;6915;48.296;8.874;2023-11-19T16:46:38;1.10;;;0.93;;
13685;SDS011;6915;48.296;8.874;2023-11-19T16:49:06;1.73;;;1.03;;
13685;SDS011;6915;48.296;8.874;2023-11-19T16:51:33;3.23;;;1.30;;
13685;SDS011;6915;48.296;8.874;2023-11-19T16:54:00;3.40;;;1.30;;
13685;SDS011;6915;48.296;8.874;2023-11-19T16:56:27;6.00;;;2.50;;
13685;SDS011;6915;48.296;8.874;2023-11-19T16:58:57;3.37;;;2.67;;
13685;SDS011;6915;48.296;8.874;2023-11-19T17:01:25;2.33;;;1.87;;
13685;SDS011;6915;48.296;8.874;2023-11-19T17:03:52;3.50;;;2.47;;
13685;SDS011;6915;48.296;8.874;2023-11-19T17:06:20;1.83;;;1.23;;
13685;SDS011;6915;48.296;8.874;2023-11-19T17:08:47;2.73;;;1.37;;
13685;SDS011;6915;48.296;8.874;2023-11-19T17:11:14;1.83;;;1.23;;
13685;SDS011;6915;48.296;8.874;2023-11-19T17:13:40;2.57;;;1.17;;
13685;SDS011;6915;48.296;8.874;2023-11-19T17:16:07;2.70;;;1.93;;
13685;SDS011;6915;48.296;8.874;2023-11-19T17:18:34;3.83;;;1.40;;
13685;SDS011;6915;48.296;8.874;2023-11-19T17:21:02;1.37;;;1.20;;
13685;SDS011;6915;48.296;8.874;2023-11-19T17:23:31;1.90;;;1.07;;
13685;SDS011;6915;48.296;8.874;2023-11-19T17:25:58;4.57;;;3.13;;
13685;SDS011;6915;48.296;8.874;2023-11-19T17:28:24;3.37;;;1.80;;
13685;SDS011;6915;48.296;8.874;2023-11-19T17:30:51;3.37;;;3.07;;
13685;SDS011;6915;48.296;8.874;2023-11-19T17:33:19;4.60;;;2.90;;
13685;SDS011;6915;48.296;8.874;2023-11-19T17:35:46;5.30;;;3.27;;
13685;SDS011;6915;48.296;8.874;2023-11-19T17:38:12;7.90;;;4.40;;
13685;SDS011;6915;48.296;8.874;2023-11-19T17:40:41;3.67;;;2.57;;
13685;SDS011;6915;48.296;8.874;2023-11-19T17:43:08;5.60;;;4.27;;
13685;SDS011;6915;48.296;8.874;2023-11-19T17:45:35;3.33;;;2.07;;
13685;SDS011;6915;48.296;8.874;2023-11-19T17:48:02;2.53;;;1.50;;
13685;SDS011;6915;48.296;8.874;2023-11-19T17:50:29;3.07;;;1.57;;
13685;SDS011;6915;48.296;8.874;2023-11-19T17:52:56;1.40;;;1.20;;
13685;SDS011;6915;48.296;8.874;2023-11-19T17:55:23;6.47;;;1.87;;
13685;SDS011;6915;48.296;8.874;2023-11-19T17:57:51;3.73;;;2.10;;
13685;SDS011;6915;48.296;8.874;2023-11-19T18:00:18;2.50;;;1.50;;
13685;SDS011;6915;48.296;8.874;2023-11-19T18:02:46;3.70;;;1.70;;
13685;SDS011;6915;48.296;8.874;2023-11-19T18:05:15;2.50;;;1.90;;
13685;SDS011;6915;48.296;8.874;2023-11-19T18:07:42;3.07;;;1.40;;
13685;SDS011;6915;48.296;8.874;2023-11-19T18:10:09;2.40;;;1.63;;
13685;SDS011;6915;48.296;8.874;2023-11-19T18:12:36;2.70;;;1.37;;
13685;SDS011;6915;48.296;8.874;2023-11-19T18:15:06;1.67;;;1.40;;
13685;SDS011;6915;48.296;8.874;2023-11-19T18:17:33;2.33;;;2.10;;
13685;SDS011;6915;48.296;8.874;2023-11-19T18:20:02;1.87;;;1.30;;
13685;SDS011;6915;48.296;8.874;2023-11-19T18:22:29;1.63;;;1.30;;
13685;SDS011;6915;48.296;8.874;2023-11-19T18:24:56;1.77;;;1.67;;
13685;SDS011;6915;48.296;8.874;2023-11-19T18:27:24;2.13;;;1.90;;
13685;SDS011;6915;48.296;8.874;2023-11-19T18:29:51;1.60;;;1.20;;
13685;SDS011;6915;48.296;8.874;2023-11-19T18:32:20;1.47;;;1.07;;
13685;SDS011;6915;48.296;8.874;2023-11-19T18:34:46;2.43;;;1.20;;
13685;SDS011;6915;48.296;8.874;2023-11-19T18:37:13;1.20;;;1.00;;
13685;SDS011;6915;48.296;8.874;2023-11-19T18:39:41;5.43;;;1.07;;
13685;SDS011;6915;48.296;8.874;2023-11-19T18:42:08;1.93;;;1.10;;
13685;SDS011;6915;48.296;8.874;2023-11-19T18:44:35;2.57;;;1.00;;
13685;SDS011;6915;48.296;8.874;2023-11-19T18:47:02;4.47;;;1.67;;
13685;SDS011;6915;48.296;8.874;2023-11-19T18:49:30;1.63;;;1.20;;
13685;SDS011;6915;48.296;8.874;2023-11-19T18:51:57;3.27;;;1.30;;
13685;SDS011;6915;48.296;8.874;2023-11-19T18:54:24;2.23;;;1.50;;
13685;SDS011;6915;48.296;8.874;2023-11-19T18:56:50;3.43;;;2.13;;
13685;SDS011;6915;48.296;8.874;2023-11-19T18:59:22;3.00;;;2.03;;
13685;SDS011;6915;48.296;8.874;2023-11-19T19:01:48;3.40;;;2.07;;
13685;SDS011;6915;48.296;8.874;2023-11-19T19:04:15;1.60;;;1.50;;
13685;SDS011;6915;48.296;8.874;2023-11-19T19:06:44;2.10;;;1.60;;
13685;SDS011;6915;48.296;8.874;2023-11-19T19:09:13;0.97;;;0.97;;
13685;SDS011;6915;48.296;8.874;2023-11-19T19:11:43;3.13;;;1.00;;
13685;SDS011;6915;48.296;8.874;2023-11-19T19:14:10;0.97;;;0.87;;
13685;SDS011;6915;48.296;8.874;2023-11-19T19:16:38;0.80;;;0.80;;
13685;SDS011;6915;48.296;8.874;2023-11-19T19:19:05;1.73;;;0.97;;
13685;SDS011;6915;48.296;8.874;2023-11-19T19:21:32;1.40;;;1.00;;
13685;SDS011;6915;48.296;8.874;2023-11-19T19:24:00;1.00;;;0.90;;
13685;SDS011;6915;48.296;8.874;2023-11-19T19:26:30;1.50;;;0.87;;
13685;SDS011;6915;48.296;8.874;2023-11-19T19:28:57;1.90;;;0.70;;
13685;SDS011;6915;48.296;8.874;2023-11-19T19:31:24;1.37;;;0.77;;
13685;SDS011;6915;48.296;8.874;2023-11-19T19:33:52;1.87;;;0.80;;
13685;SDS011;6915;48.296;8.874;2023-11-19T19:36:23;0.60;;;0.60;;
13685;SDS011;6915;48.296;8.874;2023-11-19T19:38:49;0.80;;;0.70;;
13685;SDS011;6915;48.296;8.874;2023-11-19T19:41:18;1.00;;;0.90;;
13685;SDS011;6915;48.296;8.874;2023-11-19T19:43:44;1.00;;;0.83;;
13685;SDS011;6915;48.296;8.874;2023-11-19T19:46:11;0.60;;;0.60;;
13685;SDS011;6915;48.296;8.874;2023-11-19T19:48:38;3.07;;;1.00;;
13685;SDS011;6915;48.296;8.874;2023-11-19T19:51:06;1.20;;;0.73;;
13685;SDS011;6915;48.296;8.874;2023-11-19T19:53:34;3.00;;;0.80;;
13685;SDS011;6915;48.296;8.874;2023-11-19T19:56:02;1.20;;;0.80;;
13685;SDS011;6915;48.296;8.874;2023-11-19T19:58:31;2.10;;;0.87;;
13685;SDS011;6915;48.296;8.874;2023-11-19T20:00:58;1.83;;;0.83;;
13685;SDS011;6915;48.296;8.874;2023-11-19T20:03:27;1.50;;;0.70;;
13685;SDS011;6915;48.296;8.874;2023-11-19T20:05:55;1.80;;;0.70;;
13685;SDS011;6915;48.296;8.874;2023-11-19T20:08:22;1.20;;;0.70;;
13685;SDS011;6915;48.296;8.874;2023-11-19T20:10:49;0.70;;;0.70;;
13685;SDS011;6915;48.296;8.874;2023-11-19T20:13:16;1.30;;;0.70;;
13685;SDS011;6915;48.296;8.874;2023-11-19T20:15:45;1.47;;;0.80;;
13685;SDS011;6915;48.296;8.874;2023-11-19T20:18:14;1.30;;;0.90;;
13685;SDS011;6915;48.296;8.874;2023-11-19T20:20:41;2.10;;;0.97;;
13685;SDS011;6915;48.296;8.874;2023-11-19T20:23:09;1.90;;;0.97;;
13685;SDS011;6915;48.296;8.874;2023-11-19T20:25:35;1.30;;;1.20;;
13685;SDS011;6915;48.296;8.874;2023-11-19T20:28:02;5.07;;;4.10;;
13685;SDS011;6915;48.296;8.874;2023-11-19T20:30:29;2.77;;;2.10;;
13685;SDS011;6915;48.296;8.874;2023-11-19T20:32:58;6.13;;;4.43;;
13685;SDS011;6915;48.296;8.874;2023-11-19T20:35:25;1.87;;;1.30;;
13685;SDS011;6915;48.296;8.874;2023-11-19T20:37:51;2.20;;;1.43;;
13685;SDS011;6915;48.296;8.874;2023-11-19T20:40:18;1.37;;;1.00;;
13685;SDS011;6915;48.296;8.874;2023-11-19T20:42:46;3.57;;;1.10;;
13685;SDS011;6915;48.296;8.874;2023-11-19T20:45:13;1.73;;;0.83;;
13685;SDS011;6915;48.296;8.874;2023-11-19T20:47:40;1.07;;;0.67;;
13685;SDS011;6915;48.296;8.874;2023-11-19T20:50:10;2.10;;;0.80;;
13685;SDS011;6915;48.296;8.874;2023-11-19T20:52:37;1.10;;;0.60;;
13685;SDS011;6915;48.296;8.874;2023-11-19T20:55:04;2.20;;;0.70;;
13685;SDS011;6915;48.296;8.874;2023-11-19T20:57:32;2.03;;;0.80;;
13685;SDS011;6915;48.296;8.874;2023-11-19T20:59:59;1.13;;;0.80;;
13685;SDS011;6915;48.296;8.874;2023-11-19T21:02:27;1.10;;;0.77;;
13685;SDS011;6915;48.296;8.874;2023-11-19T21:04:56;2.00;;;0.60;;
13685;SDS011;6915;48.296;8.874;2023-11-19T21:07:24;0.90;;;0.90;;
13685;SDS011;6915;48.296;8.874;2023-11-19T21:09:52;1.20;;;0.67;;
13685;SDS011;6915;48.296;8.874;2023-11-19T21:12:19;2.03;;;0.60;;
13685;SDS011;6915;48.296;8.874;2023-11-19T21:14:46;1.20;;;0.67;;
13685;SDS011;6915;48.296;8.874;2023-11-19T21:17:13;2.53;;;0.80;;
13685;SDS011;6915;48.296;8.874;2023-11-19T21:19:40;1.93;;;0.60;;
13685;SDS011;6915;48.296;8.874;2023-11-19T21:22:07;0.57;;;0.57;;
13685;SDS011;6915;48.296;8.874;2023-11-19T21:24:36;0.70;;;0.63;;
13685;SDS011;6915;48.296;8.874;2023-11-19T21:27:03;2.07;;;0.70;;
13685;SDS011;6915;48.296;8.874;2023-11-19T21:29:31;0.67;;;0.60;;
13685;SDS011;6915;48.296;8.874;2023-11-19T21:31:58;0.70;;;0.50;;
13685;SDS011;6915;48.296;8.874;2023-11-19T21:34:25;1.80;;;0.30;;
13685;SDS011;6915;48.296;8.874;2023-11-19T21:36:52;0.70;;;0.60;;
13685;SDS011;6915;48.296;8.874;2023-11-19T21:39:19;0.80;;;0.60;;
13685;SDS011;6915;48.296;8.874;2023-11-19T21:41:47;0.63;;;0.50;;
13685;SDS011;6915;48.296;8.874;2023-11-19T21:44:14;1.00;;;0.53;;
13685;SDS011;6915;48.296;8.874;2023-11-19T21:46:41;3.23;;;0.50;;
13685;SDS011;6915;48.296;8.874;2023-11-19T21:49:08;0.70;;;0.60;;
13685;SDS011;6915;48.296;8.874;2023-11-19T21:51:38;1.27;;;0.60;;
13685;SDS011;6915;48.296;8.874;2023-11-19T21:54:05;1.80;;;0.60;;
13685;SDS011;6915;48.296;8.874;2023-11-19T21:56:33;0.70;;;0.57;;
13685;SDS011;6915;48.296;8.874;2023-11-19T21:59:02;0.63;;;0.53;;
13685;SDS011;6915;48.296;8.874;2023-11-19T22:01:29;1.40;;;0.67;;
13685;SDS011;6915;48.296;8.874;2023-11-19T22:03:57;1.90;;;0.70;;
13685;SDS011;6915;48.296;8.874;2023-11-19T22:06:24;1.67;;;0.80;;
13685;SDS011;6915;48.296;8.874;2023-11-19T22:08:52;2.10;;;0.70;;
13685;SDS011;6915;48.296;8.874;2023-11-19T22:11:18;1.40;;;0.57;;
13685;SDS011;6915;48.296;8.874;2023-11-19T22:13:48;0.70;;;0.70;;
13685;SDS011;6915;48.296;8.874;2023-11-19T22:16:17;2.47;;;0.53;;
13685;SDS011;6915;48.296;8.874;2023-11-19T22:18:44;1.10;;;0.60;;
13685;SDS011;6915;48.296;8.874;2023-11-19T22:21:11;0.97;;;0.80;;
13685;SDS011;6915;48.296;8.874;2023-11-19T22:23:38;2.53;;;0.90;;
13685;SDS011;6915;48.296;8.874;2023-11-19T22:26:06;1.37;;;0.83;;
13685;SDS011;6915;48.296;8.874;2023-11-19T22:28:32;2.40;;;0.90;;
13685;SDS011;6915;48.296;8.874;2023-11-19T22:31:04;1.43;;;0.60;;
13685;SDS011;6915;48.296;8.874;2023-11-19T22:33:32;3.60;;;0.77;;
13685;SDS011;6915;48.296;8.874;2023-11-19T22:35:59;1.40;;;0.80;;
13685;SDS011;6915;48.296;8.874;2023-11-19T22:38:26;1.80;;;0.50;;
13685;SDS011;6915;48.296;8.874;2023-11-19T22:40:53;2.20;;;0.60;;
13685;SDS011;6915;48.296;8.874;2023-11-19T22:43:20;1.40;;;0.50;;
13685;SDS011;6915;48.296;8.874;2023-11-19T22:45:47;2.93;;;0.70;;
13685;SDS011;6915;48.296;8.874;2023-11-19T22:48:14;3.63;;;0.80;;
13685;SDS011;6915;48.296;8.874;2023-11-19T22:50:42;2.27;;;0.50;;
13685;SDS011;6915;48.296;8.874;2023-11-19T22:53:10;1.47;;;0.70;;
13685;SDS011;6915;48.296;8.874;2023-11-19T22:55:37;2.23;;;0.70;;
13685;SDS011;6915;48.296;8.874;2023-11-19T22:58:04;2.80;;;0.90;;
13685;SDS011;6915;48.296;8.874;2023-11-19T23:00:32;2.33;;;0.70;;
13685;SDS011;6915;48.296;8.874;2023-11-19T23:03:01;1.00;;;0.60;;
13685;SDS011;6915;48.296;8.874;2023-11-19T23:05:29;3.70;;;0.80;;
13685;SDS011;6915;48.296;8.874;2023-11-19T23:07:58;2.87;;;0.80;;
13685;SDS011;6915;48.296;8.874;2023-11-19T23:10:25;3.57;;;0.80;;
13685;SDS011;6915;48.296;8.874;2023-11-19T23:12:52;1.23;;;0.60;;
13685;SDS011;6915;48.296;8.874;2023-11-19T23:15:22;1.53;;;0.80;;
13685;SDS011;6915;48.296;8.874;2023-11-19T23:17:50;2.40;;;0.63;;
13685;SDS011;6915;48.296;8.874;2023-11-19T23:20:17;2.67;;;0.57;;
13685;SDS011;6915;48.296;8.874;2023-11-19T23:22:44;1.07;;;0.70;;
13685;SDS011;6915;48.296;8.874;2023-11-19T23:25:13;1.83;;;0.80;;
13685;SDS011;6915;48.296;8.874;2023-11-19T23:27:40;1.30;;;1.00;;
13685;SDS011;6915;48.296;8.874;2023-11-19T23:30:07;3.67;;;0.80;;
13685;SDS011;6915;48.296;8.874;2023-11-19T23:32:34;1.60;;;0.87;;
13685;SDS011;6915;48.296;8.874;2023-11-19T23:35:01;1.90;;;0.73;;
13685;SDS011;6915;48.296;8.874;2023-11-19T23:37:34;2.20;;;0.80;;
13685;SDS011;6915;48.296;8.874;2023-11-19T23:40:02;1.10;;;0.80;;
13685;SDS011;6915;48.296;8.874;2023-11-19T23:42:32;2.17;;;0.67;;
13685;SDS011;6915;48.296;8.874;2023-11-19T23:44:59;1.30;;;0.73;;
13685;SDS011;6915;48.296;8.874;2023-11-19T23:47:26;1.67;;;0.57;;
13685;SDS011;6915;48.296;8.874;2023-11-19T23:49:53;2.10;;;0.73;;
13685;SDS011;6915;48.296;8.874;2023-11-19T23:52:20;2.30;;;0.90;;
13685;SDS011;6915;48.296;8.874;2023-11-19T23:54:47;2.00;;;0.63;;
13685;SDS011;6915;48.296;8.874;2023-11-19T23:57:14;2.10;;;0.70;;
13685;SDS011;6915;48.296;8.874;2023-11-19T23:59:44;1.20;;;0.70;;
